• Join FlightAware (Why Join?)
  • Login
  • US Flag 
06:52PM EST


 

Airport Tracker/Info


-or-


 

Live Flight TrackerFlight Track Log ✈ TAM3701 ✈ 27-Jul-2013 ✈ SBBR / BSB - SBSP / CGH

Flight Track Log - Related Links

Times and Time Zones

All times are in EDT time to prevent confusion due to time zone crossing. See the TAM3701 flight status page for this flight to view local times or setup timezone preferences in your user account.

Time Position Orientation Groundspeed Altitude Reporting Facility
EDT Latitude Longitude Course Direction KTS MPH feet Rate Location/Type
08:57AM -17.7605 -47.6163 172° South  Level Estimated
08:58AM -17.8468 -47.6026 171° South  Level Estimated
08:59AM -17.9450 -47.5871 171° South  Level Estimated
09:00AM -18.0433 -47.5716 171° South  Level Estimated
09:01AM -18.1416 -47.5560 171° South  Level Estimated
09:02AM -18.2398 -47.5404 171° South  Level Estimated
09:03AM -18.3381 -47.5248 171° South  Level Estimated
09:04AM -18.4364 -47.5092 171° South  Level Estimated
09:05AM -18.5346 -47.4936 171° South  Level Estimated
09:06AM -18.6329 -47.4779 171° South  Level Estimated
09:07AM -18.7311 -47.4622 171° South  Level Estimated
09:08AM -18.8294 -47.4466 171° South  Level Estimated
09:09AM -18.9277 -47.4309 171° South  Level Estimated
09:10AM -19.0259 -47.4151 171° South  Level Estimated
09:11AM -19.1242 -47.3994 171° South  Level Estimated
09:12AM -19.2224 -47.3836 171° South  Level Estimated
09:13AM -19.3207 -47.3678 171° South  Level Estimated
09:14AM -19.4189 -47.3520 171° South  Level Estimated
09:15AM -19.5172 -47.3362 171° South  Level Estimated
09:16AM -19.6154 -47.3204 171° South  Level Estimated
09:17AM -19.7137 -47.3045 171° South  Level Estimated
09:18AM -19.8119 -47.2886 171° South  Level Estimated
09:19AM -19.9101 -47.2727 171° South  Level Estimated
09:20AM -20.0084 -47.2568 171° South  Level Estimated
09:21AM -20.1066 -47.2409 171° South  Level Estimated
09:22AM -20.2049 -47.2249 171° South  Level Estimated
09:23AM -20.3031 -47.2089 171° South  Level Estimated
09:24AM -20.4013 -47.1929 171° South  Level Estimated
09:25AM -20.4996 -47.1769 171° South  Level Estimated
09:26AM -20.5978 -47.1609 171° South  Level Estimated
09:27AM -20.6960 -47.1448 171° South  Level Estimated
09:28AM -20.7943 -47.1287 171° South  Level Estimated
09:29AM -20.8925 -47.1126 171° South  Level Estimated
09:30AM -20.9907 -47.0965 171° South  Level Estimated
09:31AM -21.0889 -47.0804 171° South  Level Estimated
09:32AM -21.1872 -47.0642 171° South  Level Estimated
09:33AM -21.2854 -47.0480 171° South  Level Estimated
09:34AM -21.3836 -47.0318 171° South  Level Estimated
09:35AM -21.4818 -47.0156 171° South  Level Estimated
09:36AM -21.5800 -46.9993 171° South  Level Estimated
09:37AM -21.6783 -46.9831 171° South  Level Estimated
09:38AM -21.7765 -46.9668 171° South  Level Estimated
09:39AM -21.8747 -46.9504 171° South  Level Estimated
09:40AM -21.9729 -46.9341 171° South  Level Estimated
09:41AM -22.0711 -46.9177 171° South  Level Estimated
09:42AM -22.1693 -46.9013 171° South  Level Estimated
09:43AM -22.2675 -46.8849 171° South  Level Estimated
09:44AM -22.3657 -46.8685 171° South  Level Estimated
09:45AM -22.4639 -46.8521 171° South  Level Estimated
09:46AM -22.5621 -46.8356 171° South  Level Estimated
09:47AM -22.6603 -46.8191 171° South  Level Estimated
09:48AM -22.7585 -46.8025 171° South  Level Estimated
09:49AM -22.8567 -46.7860 171° South  Level Estimated
09:50AM -22.9549 -46.7694 171° South  Level Estimated
09:51AM -23.0531 -46.7528 171° South  Level Estimated
09:52AM -23.1513 -46.7362 171° South  Level Estimated
09:53AM -23.2495 -46.7196 171° South  Level Estimated
09:54AM -23.3477 -46.7029 171° South  Level Estimated
09:55AM -23.4459 -46.6862 171° South  Level Estimated
09:56AM -23.5440 -46.6695 171° South  Level Estimated
09:57AM -23.6267 -46.6554 171° South  Level Estimated
09:58AM -23.6267 -46.6554 114° Southeast  Level Estimated
09:59AM -23.6267 -46.6554 114° Southeast  Level Estimated
10:00AM -23.6267 -46.6554 114° Southeast  Level Estimated
10:01AM -23.6267 -46.6554 114° Southeast  Level Estimated
10:02AM -23.6267 -46.6554 114° Southeast  Level Estimated
10:03AM -23.6267 -46.6554 114° Southeast  Level Estimated
10:04AM -23.6267 -46.6554 114° Southeast  Level Estimated
10:05AM -23.6267 -46.6554 114° Southeast  Level Estimated
10:06AM -23.6267 -46.6554 114° Southeast  Level Estimated
10:07AM -23.6267 -46.6554 114° Southeast  Level Estimated
10:08AM -23.6267 -46.6554 114° Southeast  Level Estimated
10:09AM -23.6267 -46.6554 114° Southeast  Level Estimated
10:10AM -23.6267 -46.6554 114° Southeast  Level Estimated